Atkinson, ME

9:37 PM EST on February 09, 2016 (GMT -0500)
SeDoMoCha Campus | | Change Station
CLOSE
Current Station
Personal Weather Station
Location: Dover-Foxcroft, ME
Elevation: 381 ft
Nearby Weather Stations

Elev 381 ft 45.19 °N, 69.23 °W | Updated 9 seconds ago

Mostly Cloudy
Mostly Cloudy
18.0 °F
Feels Like 18 °F
N
0.0
Wind Variable Wind from SSW
Gusts 1.0 mph

Today
High -- | Low -- °F
--% Chance of Precip.
Yesterday
High -- | Low -- °F
Precip. -- in
Pressure 29.60 in
Visibility 3.0 miles
Clouds Overcast 2800 ft
Windchill 18 °F
Dew Point 16 °F
Humidity 87%
Rainfall 0.00 in
Snow Depth Not available.
6:47 AM 4:55 PM
Waxing Crescent, 3% visible
METAR KBGR 100153Z 33007KT 3SM -SN BR OVC028 M07/M08 A2959 RMK AO2 SLP024 P0000 T10671083
Pressure 29.60 in
Visibility 3.0 miles
Clouds Overcast 2800 ft
Windchill 18 °F
Dew Point 16 °F
Humidity 87%
Rainfall 0.00 in
Snow Depth Not available.
6:47 AM 4:55 PM
Waxing Crescent, 3% visible
METAR KBGR 100153Z 33007KT 3SM -SN BR OVC028 M07/M08 A2959 RMK AO2 SLP024 P0000 T10671083

10-Day Weather Forecast

Almanac

Astronomy

Feb. 09, 2016 Rise Set
Actual Time
Civil Twilight
Nautical Twilight
Astronomical Twilight
Moon
Length of Visible Light
Length of Day
Tomorrow will be .
, % of the Moon is Illuminated

Today's Extremes

State Highs State Lows

Community

WunderPhotos

Upload Photos

1,891,763 photos uploaded!

WunderBlog® & News

Nearby

Air Quality

  Air Quality AQ Index Pollutant
Not available.

Snow Depth

Station Depth Elevation

Earthquake Activity

City Distance Mag. Time & Date
Minimum magnitude displayed is 2.5.

Coastal Water Temperatures

Place Temperature

Stations

Nearby Weather Stations

Station Location Temp. Windchill Dew Point Humidity Wind Precip. Elev Updated Type
                   

Watches & Warnings

There are currently no watches in effect.